Time;durP1;ratioP1;P1;durP2;ratioP2;P2;SDS_P1;SDS_P2;PMS_P1;PMS_P2;Temp;Humidity;BMP_temperature;BMP_pressure;BME280_temperature;BME280_humidity;BME280_pressure;Samples;Min_cycle;Max_cycle;Signal;HPM_P1;HPM_P2
2023/10/20 00:00:39;;;;;;;6.05;2.65;;;18.90;73.50;;;;;;2282676;55;21037;-68
2023/10/20 00:03:06;;;;;;;3.92;3.00;;;18.90;73.60;;;;;;2280541;55;21027;-67
2023/10/20 00:05:33;;;;;;;4.05;2.00;;;18.90;73.60;;;;;;2286188;54;21124;-68
2023/10/20 00:08:01;;;;;;;4.45;2.28;;;18.90;73.70;;;;;;2289194;54;21001;-69
2023/10/20 00:10:31;;;;;;;3.92;2.20;;;18.90;73.80;;;;;;2513878;55;21454;-70
2023/10/20 00:12:59;;;;;;;4.75;2.20;;;18.90;73.70;;;;;;2513317;54;20970;-67
2023/10/20 00:15:26;;;;;;;3.10;2.03;;;18.90;73.70;;;;;;2514217;54;21962;-66
2023/10/20 00:17:52;;;;;;;4.03;2.47;;;18.90;73.70;;;;;;2514041;55;21029;-66
2023/10/20 00:20:21;;;;;;;4.18;2.37;;;18.90;73.80;;;;;;2281156;56;21037;-68
2023/10/20 00:22:48;;;;;;;5.00;2.55;;;18.90;73.90;;;;;;2514342;55;20946;-69
2023/10/20 00:25:14;;;;;;;5.95;2.70;;;18.90;74.00;;;;;;2530667;54;20926;-69
2023/10/20 00:27:45;;;;;;;4.22;2.50;;;18.90;74.00;;;;;;2280863;56;21427;-68
2023/10/20 00:30:14;;;;;;;3.83;2.47;;;18.80;73.90;;;;;;2279877;56;21542;-68
2023/10/20 00:32:41;;;;;;;3.65;2.50;;;18.80;74.00;;;;;;2280687;55;20994;-69
2023/10/20 00:35:09;;;;;;;4.30;2.58;;;18.90;74.10;;;;;;2502955;54;21935;-69
2023/10/20 00:37:36;;;;;;;3.42;2.33;;;18.90;74.10;;;;;;2281709;55;21126;-68
2023/10/20 00:40:09;;;;;;;4.87;2.42;;;18.90;74.00;;;;;;2263944;54;20980;-66
2023/10/20 00:42:35;;;;;;;4.10;2.25;;;18.90;73.90;;;;;;2280423;55;21022;-69
2023/10/20 00:45:02;;;;;;;5.22;2.75;;;18.90;74.10;;;;;;2513353;55;21057;-68
2023/10/20 00:47:29;;;;;;;5.30;2.80;;;18.90;74.10;;;;;;2278757;55;21772;-67
2023/10/20 00:49:57;;;;;;;3.95;2.55;;;18.90;74.10;;;;;;2278856;55;20956;-69
2023/10/20 00:52:26;;;;;;;3.40;2.30;;;18.90;74.20;;;;;;2280255;55;20974;-67
2023/10/20 00:54:53;;;;;;;4.70;2.97;;;18.90;74.20;;;;;;2279454;55;21022;-69
2023/10/20 00:57:19;;;;;;;4.68;3.30;;;18.90;74.20;;;;;;2279376;55;21006;-67
2023/10/20 00:59:45;;;;;;;5.00;3.47;;;18.90;74.20;;;;;;2277547;54;20994;-67
2023/10/20 01:02:15;;;;;;;5.37;2.97;;;18.90;74.20;;;;;;2279086;55;20969;-68
2023/10/20 01:04:41;;;;;;;4.20;2.87;;;18.90;74.10;;;;;;2279645;55;21428;-67
2023/10/20 01:07:08;;;;;;;4.65;3.20;;;18.90;74.20;;;;;;2513070;55;21288;-69
2023/10/20 01:09:34;;;;;;;3.42;2.05;;;18.90;74.20;;;;;;2279775;55;20970;-67
2023/10/20 01:12:03;;;;;;;3.75;2.37;;;18.90;74.20;;;;;;2279160;55;20973;-69
2023/10/20 01:14:29;;;;;;;4.50;2.90;;;18.90;74.10;;;;;;2511783;55;20962;-68
2023/10/20 01:16:56;;;;;;;5.10;3.17;;;18.90;74.00;;;;;;2279859;55;20926;-67
2023/10/20 01:19:22;;;;;;;6.60;3.20;;;18.90;74.00;;;;;;2279843;56;20962;-70
2023/10/20 01:21:48;;;;;;;4.22;2.90;;;18.90;74.00;;;;;;2513063;55;21002;-68
2023/10/20 01:24:15;;;;;;;3.97;2.47;;;18.90;74.00;;;;;;2511835;55;20970;-66
2023/10/20 01:26:43;;;;;;;5.50;2.92;;;18.90;74.00;;;;;;2279691;55;21009;-67
2023/10/20 01:29:12;;;;;;;4.57;2.90;;;18.90;74.00;;;;;;2512386;55;20934;-67
2023/10/20 01:31:38;;;;;;;6.43;3.45;;;18.90;74.10;;;;;;2512882;55;20970;-70
2023/10/20 01:34:05;;;;;;;3.75;2.62;;;18.90;74.00;;;;;;2279468;55;21463;-67
2023/10/20 01:36:31;;;;;;;4.62;2.70;;;18.90;74.10;;;;;;2279982;55;21465;-68
2023/10/20 01:38:58;;;;;;;4.25;2.62;;;18.90;74.10;;;;;;2279810;55;21029;-67
2023/10/20 01:41:26;;;;;;;4.05;2.67;;;18.90;74.10;;;;;;2279189;54;20972;-69
2023/10/20 01:43:53;;;;;;;4.47;2.90;;;18.90;74.20;;;;;;2282420;55;21021;-70
2023/10/20 01:46:19;;;;;;;4.65;3.00;;;18.90;74.10;;;;;;2273676;55;22035;-69
2023/10/20 01:48:46;;;;;;;5.53;3.33;;;18.90;74.10;;;;;;2513360;54;20973;-68
2023/10/20 01:51:12;;;;;;;4.57;3.12;;;19.00;74.20;;;;;;2283189;55;21077;-67
2023/10/20 01:53:41;;;;;;;4.68;2.90;;;18.90;74.10;;;;;;2503457;55;20957;-67
2023/10/20 01:56:07;;;;;;;3.83;2.62;;;19.00;74.20;;;;;;2512468;55;21872;-67
2023/10/20 01:58:33;;;;;;;4.53;3.15;;;19.00;74.20;;;;;;2511495;55;20974;-66
2023/10/20 02:00:59;;;;;;;5.78;3.05;;;19.00;74.20;;;;;;2279610;55;20968;-67
2023/10/20 02:03:26;;;;;;;5.32;2.95;;;19.00;74.20;;;;;;2276323;54;21005;-67
2023/10/20 02:05:53;;;;;;;4.57;2.83;;;19.00;74.20;;;;;;2276337;55;22211;-70
2023/10/20 02:08:20;;;;;;;5.87;2.55;;;19.00;74.20;;;;;;2283726;55;20977;-67
2023/10/20 02:10:46;;;;;;;3.70;2.50;;;19.00;74.10;;;;;;2279952;55;21311;-70
2023/10/20 02:13:13;;;;;;;4.47;3.15;;;19.00;74.00;;;;;;2280194;55;21002;-70
2023/10/20 02:15:46;;;;;;;4.43;3.17;;;19.00;74.00;;;;;;2280017;55;20978;-67
2023/10/20 02:18:12;;;;;;;5.10;3.35;;;19.00;73.80;;;;;;2278729;55;21029;-69
2023/10/20 02:20:41;;;;;;;5.00;3.65;;;19.00;74.00;;;;;;2279167;55;20955;-67
2023/10/20 02:23:07;;;;;;;4.35;2.85;;;19.00;74.00;;;;;;2279885;55;20994;-69
2023/10/20 02:25:34;;;;;;;4.35;3.15;;;19.00;74.00;;;;;;2280213;56;20982;-66
2023/10/20 02:28:02;;;;;;;5.15;3.45;;;19.00;74.10;;;;;;2280398;55;20974;-69
2023/10/20 02:30:31;;;;;;;4.50;3.37;;;19.00;74.10;;;;;;2511903;55;21022;-67
2023/10/20 02:32:58;;;;;;;4.90;3.53;;;18.90;73.90;;;;;;2280802;55;21058;-67
2023/10/20 02:35:24;;;;;;;5.25;3.30;;;19.00;74.00;;;;;;2280481;55;20958;-68
2023/10/20 02:37:50;;;;;;;4.25;3.03;;;18.90;74.40;;;;;;2280344;55;20965;-66
2023/10/20 02:40:17;;;;;;;3.05;1.77;;;19.00;73.80;;;;;;2279971;56;20957;-69
2023/10/20 02:42:44;;;;;;;2.70;1.37;;;18.90;73.70;;;;;;2511957;55;21423;-69
2023/10/20 02:45:11;;;;;;;2.58;1.55;;;18.90;73.70;;;;;;2513704;54;20983;-67
2023/10/20 02:47:38;;;;;;;4.65;2.78;;;18.90;73.80;;;;;;2527854;54;21041;-68
2023/10/20 02:50:06;;;;;;;3.50;2.17;;;18.90;73.70;;;;;;2280281;55;21356;-66
2023/10/20 02:52:35;;;;;;;3.17;1.95;;;18.90;73.70;;;;;;2280169;56;20969;-69
2023/10/20 02:55:02;;;;;;;3.58;2.25;;;18.90;73.90;;;;;;2280331;56;20972;-68
2023/10/20 02:57:29;;;;;;;2.40;1.30;;;18.90;73.80;;;;;;2512796;55;21324;-69
2023/10/20 02:59:56;;;;;;;3.53;1.62;;;18.80;73.80;;;;;;2513362;55;20946;-68
2023/10/20 03:02:22;;;;;;;2.60;1.60;;;18.80;73.80;;;;;;2281942;55;21002;-68
2023/10/20 03:04:55;;;;;;;2.97;1.70;;;18.80;73.80;;;;;;2280538;55;21049;-66
2023/10/20 03:07:27;;;;;;;2.80;1.25;;;18.80;73.70;;;;;;2513380;55;20994;-67
2023/10/20 03:09:53;;;;;;;2.30;1.05;;;18.80;73.80;;;;;;2513000;55;20998;-69
2023/10/20 03:12:20;;;;;;;2.33;0.80;;;18.80;73.80;;;;;;2280579;55;20985;-69
2023/10/20 03:14:46;;;;;;;2.85;1.02;;;18.80;73.90;;;;;;2279482;55;21092;-66
2023/10/20 03:17:14;;;;;;;2.00;1.00;;;18.80;74.00;;;;;;2513270;55;20958;-67
2023/10/20 03:19:42;;;;;;;2.33;0.98;;;18.80;74.00;;;;;;2279535;55;20923;-67
2023/10/20 03:22:08;;;;;;;2.00;0.95;;;18.80;74.10;;;;;;2280252;56;21913;-67
2023/10/20 03:24:36;;;;;;;3.15;1.25;;;18.80;74.10;;;;;;2280713;55;20966;-67
2023/10/20 03:27:02;;;;;;;2.47;1.17;;;18.80;74.10;;;;;;2281187;55;20993;-69
2023/10/20 03:29:28;;;;;;;2.05;0.95;;;18.80;74.20;;;;;;2513641;55;20998;-69
2023/10/20 03:31:55;;;;;;;2.85;1.48;;;18.80;74.20;;;;;;2280660;56;21948;-69
2023/10/20 03:34:22;;;;;;;2.67;1.23;;;18.80;74.20;;;;;;2281072;56;21494;-68
2023/10/20 03:36:52;;;;;;;3.42;1.00;;;18.80;74.20;;;;;;2281002;55;21025;-68
2023/10/20 03:39:21;;;;;;;2.97;0.98;;;18.80;74.20;;;;;;2281118;56;21025;-70
2023/10/20 03:41:50;;;;;;;4.22;1.17;;;18.80;74.20;;;;;;2280972;55;20953;-67
2023/10/20 03:44:21;;;;;;;2.87;1.20;;;18.90;74.20;;;;;;2276950;54;20971;-67
2023/10/20 03:46:56;;;;;;;1.67;0.98;;;18.80;74.10;;;;;;2513474;55;22049;-68
2023/10/20 03:49:23;;;;;;;2.50;1.45;;;18.90;74.20;;;;;;2512308;55;21053;-67
2023/10/20 03:51:53;;;;;;;4.47;1.50;;;18.90;74.20;;;;;;2281083;55;21062;-68
2023/10/20 03:54:19;;;;;;;2.35;1.10;;;18.90;74.10;;;;;;2514059;55;21021;-68
2023/10/20 03:56:47;;;;;;;2.28;1.17;;;18.80;74.80;;;;;;2280865;56;21037;-69
2023/10/20 03:59:14;;;;;;;2.53;1.42;;;18.90;74.10;;;;;;2513914;55;20951;-67
2023/10/20 04:01:44;;;;;;;2.75;1.40;;;18.90;74.10;;;;;;2513798;55;20954;-67
2023/10/20 04:04:11;;;;;;;2.42;1.17;;;18.70;73.80;;;;;;2281618;55;20986;-70
2023/10/20 04:06:38;;;;;;;5.30;1.60;;;18.90;74.10;;;;;;2513880;55;20966;-67
2023/10/20 04:09:24;;;;;;;;;;;;;;;;;;;;;
2023/10/20 04:11:50;;;;;;;2.45;1.20;;;18.70;73.90;;;;;;2280758;55;21053;-68
2023/10/20 04:14:18;;;;;;;2.83;1.33;;;18.90;74.20;;;;;;2281185;56;21041;-69
2023/10/20 04:16:45;;;;;;;3.10;1.45;;;18.90;74.20;;;;;;2502867;55;20992;-69
2023/10/20 04:19:14;;;;;;;4.15;1.58;;;18.80;74.00;;;;;;2280729;55;20949;-67
2023/10/20 04:21:43;;;;;;;3.45;1.70;;;18.80;74.00;;;;;;2280563;55;21310;-70
2023/10/20 04:24:12;;;;;;;3.70;1.70;;;18.90;74.00;;;;;;2514066;55;20962;-69
2023/10/20 04:26:39;;;;;;;3.45;2.05;;;18.80;73.80;;;;;;2281169;55;20963;-68
2023/10/20 04:29:33;;;;;;;;;;;;;;;;;;;;;
2023/10/20 04:48:20;;;;;;;2.47;1.30;;;18.70;73.60;;;;;;2479576;55;20995;-68
2023/10/20 04:51:09;;;;;;;2.90;1.70;;;18.70;73.60;;;;;;2280656;55;20974;-68
2023/10/20 04:54:07;;;;;;;2.90;1.70;;;18.70;73.50;;;;;;2513782;55;21316;-67
2023/10/20 04:56:38;;;;;;;3.20;2.00;;;18.70;73.50;;;;;;2280430;56;21427;-69
2023/10/20 04:59:05;;;;;;;3.75;2.12;;;18.70;73.60;;;;;;2280480;55;20977;-69
2023/10/20 05:01:47;;;;;;;2.95;1.62;;;18.60;73.40;;;;;;2512774;55;20993;-69
2023/10/20 05:05:26;;;;;;;2.78;1.58;;;18.60;73.50;;;;;;2280463;55;20986;-69
2023/10/20 05:08:05;;;;;;;4.62;1.70;;;18.60;73.60;;;;;;2276009;55;21074;-69
2023/10/20 05:10:31;;;;;;;3.97;1.70;;;18.60;73.50;;;;;;2509334;55;20995;-69
2023/10/20 05:12:58;;;;;;;3.40;2.25;;;18.50;73.50;;;;;;2490369;54;21449;-67
2023/10/20 05:15:24;;;;;;;4.40;2.20;;;18.50;73.60;;;;;;2512193;55;20915;-67
2023/10/20 05:17:51;;;;;;;3.15;1.90;;;18.50;73.60;;;;;;2280176;56;21569;-69
2023/10/20 05:20:24;;;;;;;2.90;1.73;;;18.50;73.70;;;;;;2514121;55;21494;-67
2023/10/20 05:22:50;;;;;;;3.47;1.92;;;18.50;73.80;;;;;;2512538;55;20957;-67
2023/10/20 05:25:17;;;;;;;3.55;1.80;;;18.50;73.80;;;;;;2514217;55;21014;-69
2023/10/20 05:27:44;;;;;;;3.40;1.80;;;18.50;74.00;;;;;;2503826;54;21004;-66
2023/10/20 05:30:11;;;;;;;2.90;1.60;;;18.50;74.00;;;;;;2513649;55;21062;-67
2023/10/20 05:32:38;;;;;;;3.53;2.28;;;18.50;74.00;;;;;;2280597;55;21439;-69
2023/10/20 05:35:08;;;;;;;3.00;1.83;;;18.50;74.00;;;;;;2281272;55;20970;-69
2023/10/20 05:37:35;;;;;;;3.00;1.70;;;18.50;74.10;;;;;;2513812;55;20958;-69
2023/10/20 05:40:02;;;;;;;3.58;1.87;;;18.50;74.10;;;;;;2280419;56;21549;-68
2023/10/20 05:42:29;;;;;;;2.70;1.58;;;18.50;74.00;;;;;;2280361;56;20986;-69
2023/10/20 05:45:10;;;;;;;3.12;1.92;;;18.50;74.00;;;;;;2280421;56;20982;-66
2023/10/20 05:47:36;;;;;;;2.65;1.52;;;18.50;74.00;;;;;;2513529;55;20962;-66
2023/10/20 05:50:03;;;;;;;3.30;1.87;;;18.50;73.80;;;;;;2280122;55;21006;-67
2023/10/20 05:52:30;;;;;;;4.15;1.95;;;18.50;73.80;;;;;;2513504;54;21250;-68
2023/10/20 05:54:57;;;;;;;4.85;2.15;;;18.50;73.80;;;;;;2280753;55;21376;-69
2023/10/20 05:57:25;;;;;;;3.65;2.20;;;18.40;73.70;;;;;;2514526;55;21062;-69
2023/10/20 05:59:52;;;;;;;4.97;2.97;;;18.40;73.80;;;;;;2280259;55;20958;-67
2023/10/20 06:02:18;;;;;;;4.65;1.98;;;18.40;73.80;;;;;;2281508;55;20934;-68
2023/10/20 06:04:48;;;;;;;3.87;2.33;;;18.40;73.80;;;;;;2280739;55;21050;-70
2023/10/20 06:07:15;;;;;;;3.28;2.08;;;18.40;73.80;;;;;;2514014;55;21829;-67
2023/10/20 06:09:42;;;;;;;5.57;2.45;;;18.50;74.00;;;;;;2513286;55;21518;-66
2023/10/20 06:12:10;;;;;;;3.17;2.05;;;18.50;74.00;;;;;;2280470;55;20962;-67
2023/10/20 06:14:36;;;;;;;3.83;2.50;;;18.40;73.90;;;;;;2508309;54;20991;-66
2023/10/20 06:17:03;;;;;;;3.33;2.20;;;18.40;74.00;;;;;;2274510;54;21001;-68
2023/10/20 06:19:31;;;;;;;4.22;2.80;;;18.50;74.00;;;;;;2507862;54;21811;-67
2023/10/20 06:21:57;;;;;;;4.57;3.17;;;18.40;73.90;;;;;;2504808;55;21053;-67
2023/10/20 06:24:24;;;;;;;4.57;2.87;;;18.40;73.80;;;;;;2281243;55;21098;-68
2023/10/20 06:26:50;;;;;;;4.35;2.62;;;18.40;73.80;;;;;;2513099;55;20934;-67
2023/10/20 06:33:16;;;;;;;4.00;2.30;;;18.50;74.00;;;;;;2280949;56;20970;-69
2023/10/20 06:35:51;;;;;;;4.25;2.95;;;18.50;73.90;;;;;;2280355;55;20965;-68
2023/10/20 06:38:30;;;;;;;4.72;3.12;;;18.50;74.00;;;;;;2281409;56;20954;-67
2023/10/20 06:40:57;;;;;;;4.62;3.20;;;18.40;73.90;;;;;;2283776;55;20954;-67
2023/10/20 06:43:24;;;;;;;4.40;3.03;;;18.40;73.90;;;;;;2496911;54;21124;-69
2023/10/20 06:46:01;;;;;;;4.90;3.50;;;18.40;73.90;;;;;;2505639;55;20969;-67
2023/10/20 06:48:28;;;;;;;7.37;3.72;;;18.40;73.80;;;;;;2281135;56;20985;-66
2023/10/20 06:50:55;;;;;;;4.97;3.33;;;18.40;73.90;;;;;;2511798;55;20978;-68
2023/10/20 06:53:22;;;;;;;4.90;3.65;;;18.40;74.00;;;;;;2281148;55;20962;-67
2023/10/20 06:55:48;;;;;;;5.68;4.22;;;18.40;74.10;;;;;;2281247;55;20918;-67
2023/10/20 06:58:18;;;;;;;6.32;4.60;;;18.40;74.10;;;;;;2513924;55;21001;-68
2023/10/20 07:00:46;;;;;;;5.50;3.62;;;18.40;74.10;;;;;;2280713;56;21475;-68
2023/10/20 07:03:14;;;;;;;6.12;4.43;;;18.40;74.10;;;;;;2281173;55;21451;-69
2023/10/20 07:05:40;;;;;;;5.93;4.45;;;18.40;74.10;;;;;;2513786;55;20965;-67
2023/10/20 07:08:07;;;;;;;6.32;4.82;;;18.40;74.20;;;;;;2281085;55;21053;-67
2023/10/20 07:10:37;;;;;;;5.70;4.45;;;18.40;74.20;;;;;;2280115;56;21420;-68
2023/10/20 07:13:12;;;;;;;5.28;4.43;;;18.40;74.20;;;;;;2515813;54;21026;-67
2023/10/20 07:15:40;;;;;;;5.80;4.18;;;18.40;74.20;;;;;;2292043;55;20985;-68
2023/10/20 07:18:06;;;;;;;5.40;4.15;;;18.40;74.20;;;;;;2280892;56;21041;-68
2023/10/20 07:20:33;;;;;;;5.75;4.00;;;18.40;74.30;;;;;;2280938;55;21000;-66
2023/10/20 07:23:00;;;;;;;5.03;3.78;;;18.50;74.40;;;;;;2280388;55;21096;-70
2023/10/20 07:25:26;;;;;;;6.30;4.70;;;18.40;74.30;;;;;;2281106;55;20962;-68
2023/10/20 07:27:53;;;;;;;6.53;5.28;;;18.50;74.50;;;;;;2280179;56;21746;-67
2023/10/20 07:30:20;;;;;;;6.47;5.53;;;18.40;74.40;;;;;;2514755;55;21018;-67
2023/10/20 07:32:47;;;;;;;7.05;5.12;;;18.50;74.40;;;;;;2280255;55;20970;-69
2023/10/20 07:35:13;;;;;;;8.45;5.43;;;18.50;74.40;;;;;;2514082;55;20993;-67
2023/10/20 07:37:41;;;;;;;7.57;5.28;;;18.50;74.50;;;;;;2281203;55;21014;-69
2023/10/20 07:40:10;;;;;;;7.20;5.35;;;18.50;74.40;;;;;;2280526;55;20969;-67
2023/10/20 07:42:39;;;;;;;6.75;5.00;;;18.50;74.30;;;;;;2513596;55;21478;-68
2023/10/20 07:45:06;;;;;;;6.15;4.20;;;18.50;74.30;;;;;;2280649;56;20985;-67
2023/10/20 07:47:33;;;;;;;4.20;3.35;;;18.50;74.30;;;;;;2281677;55;20973;-67
2023/10/20 07:50:02;;;;;;;4.22;3.20;;;18.50;74.30;;;;;;2512684;55;20966;-67
2023/10/20 07:52:29;;;;;;;3.90;2.58;;;18.50;74.40;;;;;;2281102;56;20962;-66
2023/10/20 07:54:55;;;;;;;5.75;3.53;;;18.60;74.60;;;;;;2281544;55;20984;-67
2023/10/20 07:57:24;;;;;;;3.72;2.40;;;18.50;74.40;;;;;;2275833;54;20958;-70
2023/10/20 07:59:50;;;;;;;6.45;3.28;;;18.60;74.70;;;;;;2513341;55;21994;-68
2023/10/20 08:02:18;;;;;;;4.82;3.22;;;18.60;74.70;;;;;;2514227;55;20989;-68
2023/10/20 08:04:45;;;;;;;4.90;2.87;;;18.60;74.80;;;;;;2514124;55;21784;-68
2023/10/20 08:07:11;;;;;;;3.75;2.30;;;18.60;74.80;;;;;;2280848;56;21025;-69
2023/10/20 08:09:38;;;;;;;4.45;2.50;;;18.60;74.80;;;;;;2513540;55;21069;-68
2023/10/20 08:12:04;;;;;;;5.00;2.35;;;18.60;74.80;;;;;;2513994;55;20977;-68
2023/10/20 08:14:33;;;;;;;3.97;2.33;;;18.60;74.80;;;;;;2281272;55;21029;-68
2023/10/20 08:17:05;;;;;;;2.90;1.60;;;18.70;74.90;;;;;;2513862;55;20998;-69
2023/10/20 08:19:31;;;;;;;3.12;1.60;;;18.70;75.70;;;;;;2280440;55;20970;-70
2023/10/20 08:21:59;;;;;;;3.85;2.42;;;18.70;75.00;;;;;;2280538;56;21497;-69
2023/10/20 08:24:26;;;;;;;3.35;2.10;;;18.70;74.90;;;;;;2281016;55;21049;-68
2023/10/20 08:26:53;;;;;;;2.90;1.83;;;18.80;75.00;;;;;;2277643;54;21047;-68
2023/10/20 08:29:20;;;;;;;3.58;1.95;;;18.80;74.90;;;;;;2485126;55;21573;-67
2023/10/20 08:31:46;;;;;;;4.25;3.30;;;18.80;74.90;;;;;;2513502;55;21782;-67
2023/10/20 08:34:13;;;;;;;3.75;2.45;;;18.80;74.90;;;;;;2280738;56;21116;-67
2023/10/20 08:36:39;;;;;;;3.17;1.90;;;18.80;74.90;;;;;;2513527;55;21013;-67
2023/10/20 08:39:13;;;;;;;3.92;1.92;;;18.80;74.90;;;;;;2277395;55;21523;-68
2023/10/20 08:41:42;;;;;;;3.17;1.67;;;18.90;75.00;;;;;;2282424;55;21005;-68
2023/10/20 08:44:09;;;;;;;2.62;1.62;;;18.90;75.00;;;;;;2513482;55;21012;-67
2023/10/20 08:46:36;;;;;;;2.70;1.80;;;18.90;75.00;;;;;;2280715;55;20993;-69
2023/10/20 08:49:03;;;;;;;2.90;1.83;;;18.90;75.10;;;;;;2280720;55;20997;-67
2023/10/20 08:51:29;;;;;;;2.90;1.73;;;18.90;75.10;;;;;;2280218;55;21103;-69
2023/10/20 08:53:56;;;;;;;3.33;1.90;;;18.90;75.40;;;;;;2280548;56;21033;-70
2023/10/20 08:56:23;;;;;;;4.07;1.60;;;19.00;75.30;;;;;;2281115;55;21429;-69
2023/10/20 08:58:50;;;;;;;2.60;1.58;;;19.00;75.30;;;;;;2278040;54;20955;-69
2023/10/20 09:01:16;;;;;;;2.97;1.40;;;19.00;75.30;;;;;;2510883;54;21626;-67
2023/10/20 09:03:44;;;;;;;2.80;1.50;;;19.10;75.40;;;;;;2513547;55;21426;-70
2023/10/20 09:06:14;;;;;;;3.47;1.12;;;19.10;75.40;;;;;;2280310;55;21008;-69
2023/10/20 09:08:45;;;;;;;2.17;1.15;;;19.10;75.30;;;;;;2512237;55;21025;-70
2023/10/20 09:11:12;;;;;;;;;;;19.20;75.30;;;;;;2284575;55;20972;-69
2023/10/20 09:13:40;;;;;;;2.35;1.10;;;19.20;74.60;;;;;;2281416;56;20080;-67
2023/10/20 09:16:13;;;;;;;2.22;1.00;;;19.20;75.10;;;;;;2513715;55;21017;-68
2023/10/20 09:18:49;;;;;;;2.03;0.88;;;19.20;75.00;;;;;;2513705;55;21419;-68
2023/10/20 09:21:24;;;;;;;2.08;1.00;;;19.30;74.90;;;;;;2280191;56;21105;-67
2023/10/20 09:24:03;;;;;;;2.37;0.98;;;19.30;75.10;;;;;;2513137;55;21107;-69
2023/10/20 09:26:32;;;;;;;1.80;0.93;;;19.30;75.00;;;;;;2514396;54;21052;-68
2023/10/20 09:28:59;;;;;;;2.47;1.00;;;19.30;75.20;;;;;;2513576;55;21002;-67
2023/10/20 09:31:26;;;;;;;1.75;0.90;;;19.30;75.20;;;;;;2280828;55;20970;-68
2023/10/20 09:33:53;;;;;;;3.33;2.45;;;19.40;75.30;;;;;;2513317;55;21301;-67
2023/10/20 09:36:19;;;;;;;5.65;4.07;;;19.40;75.40;;;;;;2513912;55;21033;-67
2023/10/20 09:38:50;;;;;;;4.05;2.95;;;19.40;75.30;;;;;;2513610;54;20962;-68
2023/10/20 09:41:20;;;;;;;3.60;2.10;;;19.40;75.20;;;;;;2280740;56;21767;-67
2023/10/20 09:44:08;;;;;;;4.62;1.52;;;19.50;75.40;;;;;;2280266;55;20965;-66
2023/10/20 09:46:54;;;;;;;2.53;1.17;;;19.50;75.20;;;;;;2281250;56;20998;-67
2023/10/20 09:49:25;;;;;;;2.10;0.90;;;19.50;74.60;;;;;;2281201;56;20989;-67
2023/10/20 09:51:54;;;;;;;1.80;0.80;;;19.50;75.00;;;;;;2515943;54;21009;-67
2023/10/20 09:54:24;;;;;;;1.15;0.60;;;19.60;74.90;;;;;;2514414;55;20982;-69
2023/10/20 09:56:50;;;;;;;1.15;0.50;;;19.60;74.70;;;;;;2513122;55;21006;-69
2023/10/20 09:59:23;;;;;;;1.05;0.43;;;19.60;74.60;;;;;;2514233;55;21456;-68
2023/10/20 10:01:52;;;;;;;1.45;0.40;;;19.60;74.40;;;;;;2285450;56;20982;-67
2023/10/20 10:04:26;;;;;;;1.20;0.40;;;19.60;74.20;;;;;;2292719;55;21846;-67
2023/10/20 10:06:52;;;;;;;1.60;0.50;;;19.60;73.90;;;;;;2280086;55;20989;-68
2023/10/20 10:09:18;;;;;;;1.05;0.45;;;19.60;74.10;;;;;;2281226;55;20989;-70
2023/10/20 10:11:45;;;;;;;0.98;0.47;;;19.60;74.00;;;;;;2513589;55;20969;-67
2023/10/20 10:14:25;;;;;;;1.30;0.50;;;19.50;73.90;;;;;;2280896;55;20977;-67
2023/10/20 10:16:55;;;;;;;1.40;0.50;;;19.60;73.60;;;;;;2513038;55;20918;-69
2023/10/20 10:19:26;;;;;;;1.20;0.50;;;19.60;74.00;;;;;;2281640;55;20950;-66
2023/10/20 10:21:53;;;;;;;1.15;0.50;;;19.50;73.90;;;;;;2279930;55;20997;-67
2023/10/20 10:24:25;;;;;;;1.08;0.50;;;19.50;74.00;;;;;;2281064;56;20990;-68
2023/10/20 10:27:16;;;;;;;1.65;0.85;;;19.50;74.10;;;;;;2512918;55;21513;-70
2023/10/20 10:29:50;;;;;;;1.60;0.70;;;19.50;73.70;;;;;;2281077;55;20986;-67
2023/10/20 10:32:20;;;;;;;1.77;0.70;;;19.50;74.20;;;;;;2513774;55;20991;-67
2023/10/20 10:34:52;;;;;;;1.25;0.50;;;19.50;74.20;;;;;;2512956;55;21006;-67
2023/10/20 10:37:53;;;;;;;1.60;0.50;;;19.50;74.20;;;;;;2281561;55;20985;-67
2023/10/20 10:40:23;;;;;;;0.98;0.40;;;19.60;73.80;;;;;;2280340;55;20977;-67
2023/10/20 10:42:51;;;;;;;1.25;0.50;;;19.60;74.50;;;;;;2512626;55;20974;-67
2023/10/20 10:45:30;;;;;;;1.45;0.50;;;19.60;74.50;;;;;;2281233;55;21040;-67
2023/10/20 10:48:12;;;;;;;1.30;0.60;;;19.60;74.50;;;;;;2512359;55;21423;-67
2023/10/20 10:50:42;;;;;;;0.77;0.40;;;19.60;74.20;;;;;;2280983;56;21525;-67
2023/10/20 10:53:10;;;;;;;1.65;0.65;;;19.60;74.40;;;;;;2283728;55;20985;-66
2023/10/20 10:55:37;;;;;;;1.85;0.50;;;19.70;74.70;;;;;;2280818;56;20969;-67
2023/10/20 10:58:07;;;;;;;1.55;0.55;;;19.70;74.70;;;;;;2279837;56;20962;-66
2023/10/20 11:00:33;;;;;;;0.95;0.50;;;19.70;74.60;;;;;;2281125;56;21018;-67
2023/10/20 11:03:00;;;;;;;1.60;0.60;;;19.70;74.60;;;;;;2253787;56;21009;-68
2023/10/20 11:05:27;;;;;;;1.27;0.40;;;19.70;74.50;;;;;;2280623;56;20958;-68
2023/10/20 11:08:05;;;;;;;0.95;0.40;;;19.80;74.60;;;;;;2508657;55;21011;-67
2023/10/20 11:10:34;;;;;;;1.08;0.43;;;19.80;74.50;;;;;;2261218;55;21503;-69
2023/10/20 11:13:08;;;;;;;1.27;0.50;;;19.80;74.60;;;;;;2272614;55;21053;-68
2023/10/20 11:15:35;;;;;;;1.52;0.50;;;19.90;74.60;;;;;;2283338;55;20958;-68
2023/10/20 11:18:01;;;;;;;1.20;0.52;;;19.90;74.60;;;;;;2517774;54;21031;-66
2023/10/20 11:20:31;;;;;;;1.25;0.50;;;19.90;74.50;;;;;;2493550;54;20954;-68
2023/10/20 11:22:57;;;;;;;1.23;0.52;;;19.90;74.50;;;;;;2279766;56;21418;-67
2023/10/20 11:25:26;;;;;;;1.02;0.43;;;19.90;74.50;;;;;;2512579;55;21002;-68
2023/10/20 11:27:56;;;;;;;1.52;0.50;;;20.00;74.60;;;;;;2279258;55;21059;-69
2023/10/20 11:30:34;;;;;;;2.05;0.60;;;20.00;74.40;;;;;;2505371;55;21039;-71
2023/10/20 11:33:03;;;;;;;1.00;0.40;;;20.00;73.70;;;;;;2280223;56;21014;-66
2023/10/20 11:35:29;;;;;;;1.27;0.50;;;20.00;74.00;;;;;;2280743;56;21054;-68
2023/10/20 11:37:57;;;;;;;1.25;0.43;;;20.10;74.00;;;;;;2279562;56;20993;-68
2023/10/20 11:40:24;;;;;;;1.15;0.47;;;20.10;73.90;;;;;;2281219;56;21097;-68
2023/10/20 11:42:50;;;;;;;0.90;0.40;;;20.10;73.80;;;;;;2279788;56;20977;-67
2023/10/20 11:45:17;;;;;;;0.55;0.30;;;20.10;73.70;;;;;;2281517;56;20961;-69
2023/10/20 11:47:43;;;;;;;2.42;0.40;;;20.10;73.60;;;;;;2513075;55;20974;-65
2023/10/20 11:50:18;;;;;;;1.27;0.40;;;20.10;73.50;;;;;;2280654;56;20989;-68
2023/10/20 11:52:45;;;;;;;0.35;0.20;;;20.10;73.40;;;;;;2281191;56;20982;-68
2023/10/20 11:55:13;;;;;;;1.20;0.30;;;20.10;73.20;;;;;;2513906;55;21055;-69
2023/10/20 11:57:39;;;;;;;0.82;0.35;;;20.10;73.10;;;;;;2280358;55;20986;-68
2023/10/20 12:00:13;;;;;;;2.45;0.65;;;20.10;72.90;;;;;;2513584;55;21839;-70
2023/10/20 12:02:39;;;;;;;1.02;0.22;;;20.10;72.80;;;;;;2513930;55;20985;-68
2023/10/20 12:05:07;;;;;;;1.27;0.30;;;20.00;72.60;;;;;;2280476;55;21009;-69
2023/10/20 12:07:33;;;;;;;0.80;0.30;;;20.00;72.50;;;;;;2281048;56;21002;-72
2023/10/20 12:10:01;;;;;;;0.77;0.32;;;20.00;72.50;;;;;;2280361;55;20962;-69
2023/10/20 12:12:28;;;;;;;0.28;0.20;;;20.00;72.40;;;;;;2281209;55;20989;-68
2023/10/20 12:14:54;;;;;;;0.90;0.22;;;19.90;72.20;;;;;;2279435;55;20994;-69
2023/10/20 12:17:21;;;;;;;1.52;0.32;;;19.90;72.10;;;;;;2508405;54;20956;-69
2023/10/20 12:19:48;;;;;;;0.60;0.30;;;19.90;72.10;;;;;;2278068;55;21108;-71
2023/10/20 12:22:15;;;;;;;0.85;0.20;;;19.80;72.00;;;;;;2282164;55;20984;-69
2023/10/20 12:24:42;;;;;;;0.88;0.40;;;19.80;72.10;;;;;;2275647;55;20968;-69
2023/10/20 12:27:09;;;;;;;2.78;0.40;;;19.80;72.00;;;;;;2509651;55;21003;-68
2023/10/20 12:29:37;;;;;;;1.50;0.40;;;19.80;72.10;;;;;;2277285;54;20994;-67
2023/10/20 12:32:03;;;;;;;0.52;0.30;;;19.70;72.00;;;;;;2513028;55;21029;-68
2023/10/20 12:34:31;;;;;;;1.40;0.30;;;19.70;72.10;;;;;;2280681;56;21029;-68
2023/10/20 12:36:59;;;;;;;0.35;0.13;;;19.70;72.00;;;;;;2280082;55;21041;-69
2023/10/20 12:39:27;;;;;;;0.10;0.10;;;19.70;72.00;;;;;;2514534;55;20990;-71
2023/10/20 12:41:54;;;;;;;0.50;0.20;;;19.70;72.00;;;;;;2505284;55;21015;-70
2023/10/20 12:44:22;;;;;;;0.52;0.17;;;19.60;71.80;;;;;;2265171;55;20985;-68
2023/10/20 12:46:49;;;;;;;0.80;0.20;;;19.60;71.90;;;;;;2280103;55;20946;-69
2023/10/20 12:49:18;;;;;;;0.55;0.20;;;19.60;71.90;;;;;;2281099;56;20969;-71
2023/10/20 12:51:45;;;;;;;0.13;0.10;;;19.60;71.90;;;;;;2280854;56;20954;-70
2023/10/20 12:54:11;;;;;;;0.37;0.13;;;19.60;71.90;;;;;;2279950;55;20950;-68
2023/10/20 12:56:37;;;;;;;0.30;0.15;;;19.50;71.90;;;;;;2281338;55;20974;-68
2023/10/20 12:59:04;;;;;;;0.20;0.10;;;19.50;71.90;;;;;;2512818;55;21004;-69
2023/10/20 13:01:31;;;;;;;0.40;0.10;;;19.50;71.80;;;;;;2514793;55;21009;-70
2023/10/20 13:03:59;;;;;;;0.98;0.20;;;19.50;71.80;;;;;;2280012;56;21021;-70
2023/10/20 13:06:26;;;;;;;0.30;0.13;;;19.50;71.80;;;;;;2280999;55;20997;-68
2023/10/20 13:08:52;;;;;;;0.80;0.20;;;19.50;71.70;;;;;;2275261;55;21042;-69
2023/10/20 13:11:25;;;;;;;0.55;0.28;;;19.50;71.70;;;;;;2514233;55;21478;-69
2023/10/20 13:13:51;;;;;;;0.20;0.10;;;19.50;71.70;;;;;;2279743;55;21542;-68
2023/10/20 13:16:18;;;;;;;2.17;0.28;;;19.50;71.70;;;;;;2505985;54;21538;-67
2023/10/20 13:18:44;;;;;;;0.32;0.20;;;19.50;71.60;;;;;;2278134;55;20942;-70